Time;durP1;ratioP1;P1;durP2;ratioP2;P2;SDS_P1;SDS_P2;PMS_P1;PMS_P2;Temp;Humidity;BMP_temperature;BMP_pressure;BME280_temperature;BME280_humidity;BME280_pressure;Samples;Min_cycle;Max_cycle;Signal;HPM_P1;HPM_P2
2021/05/14 00:00:52;;;;;;;9.00;7.72;;;12.80;99.90;;;;;;4966121;28;20965;-77
2021/05/14 00:03:19;;;;;;;8.05;7.28;;;12.90;99.90;;;;;;4991968;28;20220;-77
2021/05/14 00:05:46;;;;;;;8.15;7.30;;;13.00;99.90;;;;;;4996977;28;20196;-77
2021/05/14 00:08:13;;;;;;;7.93;6.70;;;13.00;99.90;;;;;;4994235;28;20217;-77
2021/05/14 00:10:41;;;;;;;7.57;5.75;;;13.00;99.90;;;;;;4979632;28;20305;-77
2021/05/14 00:13:09;;;;;;;7.63;6.95;;;13.00;99.90;;;;;;4980129;28;20281;-77
2021/05/14 00:15:36;;;;;;;9.38;8.48;;;13.00;99.90;;;;;;4996940;28;20289;-77
2021/05/14 00:18:03;;;;;;;7.35;6.75;;;13.00;99.90;;;;;;4979339;28;20264;-76
2021/05/14 00:20:30;;;;;;;8.65;7.75;;;13.10;99.90;;;;;;4996543;28;20228;-76
2021/05/14 00:22:57;;;;;;;7.82;6.97;;;13.00;99.90;;;;;;4996782;28;20220;-76
2021/05/14 00:25:23;;;;;;;10.73;9.38;;;13.10;99.90;;;;;;4979141;28;20193;-76
2021/05/14 00:27:51;;;;;;;9.05;8.25;;;13.20;99.90;;;;;;4979497;28;20221;-76
2021/05/14 00:30:18;;;;;;;9.23;7.95;;;13.10;99.90;;;;;;4996688;28;20277;-76
2021/05/14 00:32:45;;;;;;;12.02;8.75;;;13.10;99.90;;;;;;5005833;28;20205;-77
2021/05/14 00:35:12;;;;;;;10.18;9.05;;;13.00;99.90;;;;;;5006045;28;20197;-77
2021/05/14 00:37:40;;;;;;;7.82;7.13;;;13.00;99.90;;;;;;4983305;28;20771;-77
2021/05/14 00:40:09;;;;;;;10.32;8.77;;;13.10;99.90;;;;;;4982748;28;20212;-78
2021/05/14 00:42:36;;;;;;;13.57;8.52;;;13.10;99.90;;;;;;4997761;28;20297;-76
2021/05/14 00:45:08;;;;;;;8.95;7.43;;;13.10;99.90;;;;;;4964107;28;20229;-77
2021/05/14 00:47:35;;;;;;;10.90;8.80;;;13.10;99.90;;;;;;4992335;28;20273;-77
2021/05/14 00:50:04;;;;;;;8.65;7.93;;;12.90;99.90;;;;;;4996367;28;20602;-77
2021/05/14 00:52:30;;;;;;;9.25;8.32;;;12.80;99.90;;;;;;4979577;28;20197;-76
2021/05/14 00:54:57;;;;;;;8.85;7.97;;;12.80;99.90;;;;;;4995843;28;20251;-76
2021/05/14 00:57:25;;;;;;;9.52;7.20;;;12.90;99.90;;;;;;4995786;28;20220;-77
2021/05/14 00:59:52;;;;;;;8.98;8.00;;;12.80;99.90;;;;;;4996378;28;20197;-77
2021/05/14 01:02:19;;;;;;;8.05;7.18;;;12.80;99.90;;;;;;4996611;28;20213;-76
2021/05/14 01:04:46;;;;;;;8.88;7.57;;;12.70;99.90;;;;;;4995763;28;20284;-76
2021/05/14 01:07:15;;;;;;;9.20;8.00;;;12.80;99.90;;;;;;4978589;28;20205;-77
2021/05/14 01:09:43;;;;;;;9.00;7.40;;;12.60;99.90;;;;;;4995262;28;20205;-77
2021/05/14 01:12:11;;;;;;;14.80;8.32;;;12.60;99.90;;;;;;4978495;28;20237;-77
2021/05/14 01:14:38;;;;;;;10.93;8.45;;;12.60;99.90;;;;;;4995877;28;20750;-76
2021/05/14 01:17:05;;;;;;;9.32;8.40;;;12.60;99.90;;;;;;4978683;28;20545;-77
2021/05/14 01:19:32;;;;;;;11.82;7.72;;;12.50;99.90;;;;;;4978353;28;20213;-77
2021/05/14 01:22:03;;;;;;;12.07;8.65;;;12.40;99.90;;;;;;4995237;28;20225;-76
2021/05/14 01:24:30;;;;;;;10.75;7.72;;;12.40;99.90;;;;;;4995935;28;20206;-78
2021/05/14 01:26:57;;;;;;;9.27;8.40;;;12.30;99.90;;;;;;4978278;28;20197;-77
2021/05/14 01:29:24;;;;;;;8.52;7.60;;;12.30;99.90;;;;;;4988434;28;20356;-77
2021/05/14 01:31:51;;;;;;;8.88;7.85;;;12.10;99.90;;;;;;4962135;28;20209;-77
2021/05/14 01:34:18;;;;;;;9.27;8.40;;;12.20;99.90;;;;;;4996126;28;20197;-77
2021/05/14 01:36:45;;;;;;;11.88;9.10;;;12.10;99.90;;;;;;4995045;28;20288;-77
2021/05/14 01:39:15;;;;;;;8.38;7.57;;;12.10;99.90;;;;;;4995374;28;20303;-77
2021/05/14 01:41:42;;;;;;;10.50;8.93;;;12.10;99.90;;;;;;4978726;28;20227;-77
2021/05/14 01:44:08;;;;;;;9.65;8.65;;;12.30;99.90;;;;;;4960013;28;20206;-77
2021/05/14 01:46:36;;;;;;;9.13;8.02;;;12.50;99.90;;;;;;4989824;28;20296;-76
2021/05/14 01:49:04;;;;;;;9.93;8.80;;;12.50;99.90;;;;;;4978262;28;20268;-76
2021/05/14 01:51:30;;;;;;;8.68;7.85;;;12.20;99.90;;;;;;4996157;28;20202;-76
2021/05/14 01:53:57;;;;;;;9.15;8.25;;;12.20;99.90;;;;;;4977578;28;20548;-76
2021/05/14 01:56:24;;;;;;;10.95;8.23;;;12.10;99.90;;;;;;4978243;28;20231;-76
2021/05/14 01:58:52;;;;;;;8.82;8.02;;;12.30;99.90;;;;;;4970793;28;20268;-77
2021/05/14 02:01:19;;;;;;;10.00;7.95;;;12.30;99.90;;;;;;4990805;28;20745;-76
2021/05/14 02:03:46;;;;;;;11.02;8.27;;;12.30;99.90;;;;;;4995207;28;20225;-77
2021/05/14 02:06:13;;;;;;;8.15;7.00;;;12.30;99.90;;;;;;4978331;28;20193;-77
2021/05/14 02:08:40;;;;;;;9.45;8.55;;;12.10;99.90;;;;;;4981465;28;20221;-76
2021/05/14 02:11:09;;;;;;;9.90;8.30;;;11.90;99.90;;;;;;4987702;28;20212;-77
2021/05/14 02:13:37;;;;;;;8.52;7.60;;;11.80;99.90;;;;;;4971667;28;20212;-77
2021/05/14 02:16:05;;;;;;;12.20;9.40;;;11.70;99.90;;;;;;4999852;28;20201;-77
2021/05/14 02:18:32;;;;;;;10.00;8.90;;;11.80;99.90;;;;;;5014016;28;20622;-75
2021/05/14 02:20:59;;;;;;;11.38;10.10;;;12.00;99.90;;;;;;4969374;28;20217;-77
2021/05/14 02:23:25;;;;;;;11.10;8.20;;;12.00;99.90;;;;;;4995022;28;20683;-77
2021/05/14 02:25:53;;;;;;;12.45;8.02;;;12.10;99.90;;;;;;4994685;28;20197;-77
2021/05/14 02:28:20;;;;;;;9.65;8.55;;;11.90;99.90;;;;;;4994203;28;20647;-77
2021/05/14 02:30:48;;;;;;;12.93;8.95;;;11.90;99.90;;;;;;4977380;28;20194;-77
2021/05/14 02:33:15;;;;;;;9.70;8.70;;;12.10;99.90;;;;;;4977668;28;20225;-78
2021/05/14 02:35:43;;;;;;;10.18;9.05;;;12.00;99.90;;;;;;4970101;28;20204;-77
2021/05/14 02:38:09;;;;;;;10.05;9.07;;;11.90;99.90;;;;;;4971206;28;20271;-77
2021/05/14 02:40:36;;;;;;;9.77;8.63;;;12.00;99.90;;;;;;4996320;28;20566;-78
2021/05/14 02:43:03;;;;;;;12.38;9.25;;;11.90;99.90;;;;;;4977568;28;20237;-77
2021/05/14 02:45:31;;;;;;;10.00;9.02;;;11.70;99.90;;;;;;4978404;28;20197;-78
2021/05/14 02:48:00;;;;;;;12.02;9.50;;;11.80;99.90;;;;;;4977939;28;20210;-77
2021/05/14 02:50:27;;;;;;;12.60;10.63;;;11.90;99.90;;;;;;4994424;28;20309;-77
2021/05/14 02:52:54;;;;;;;10.00;8.63;;;11.90;99.90;;;;;;4990978;28;20579;-77
2021/05/14 02:55:21;;;;;;;11.65;10.55;;;11.80;99.90;;;;;;4977004;28;20221;-77
2021/05/14 02:57:48;;;;;;;11.88;9.65;;;12.10;99.90;;;;;;4994142;28;20228;-77
2021/05/14 03:00:16;;;;;;;10.57;9.48;;;12.10;99.90;;;;;;4976655;28;20216;-77
2021/05/14 03:02:43;;;;;;;11.05;10.02;;;12.00;99.90;;;;;;4993993;28;20240;-77
2021/05/14 03:05:11;;;;;;;13.25;11.73;;;12.00;99.90;;;;;;4993790;28;20197;-77
2021/05/14 03:07:38;;;;;;;11.70;10.60;;;12.00;99.90;;;;;;4975828;28;20304;-77
2021/05/14 03:10:06;;;;;;;13.48;10.77;;;11.90;99.90;;;;;;4993313;28;20273;-77
2021/05/14 03:12:33;;;;;;;14.38;12.23;;;11.90;99.90;;;;;;4976743;28;20239;-76
2021/05/14 03:14:59;;;;;;;17.15;12.95;;;11.90;99.90;;;;;;4976886;28;20252;-77
2021/05/14 03:17:26;;;;;;;16.63;13.30;;;11.70;99.90;;;;;;4993268;28;20244;-77
2021/05/14 03:19:52;;;;;;;16.38;14.52;;;11.60;99.90;;;;;;4993578;28;20562;-77
2021/05/14 03:22:20;;;;;;;14.95;13.45;;;11.70;99.90;;;;;;4976311;28;20525;-77
2021/05/14 03:24:46;;;;;;;14.48;13.02;;;11.70;99.90;;;;;;4975923;28;20197;-77
2021/05/14 03:27:13;;;;;;;16.70;14.70;;;11.70;99.90;;;;;;4975627;28;20205;-76
2021/05/14 03:29:40;;;;;;;15.75;14.00;;;11.70;99.90;;;;;;4993073;28;20217;-76
2021/05/14 03:32:07;;;;;;;16.27;14.60;;;11.70;99.90;;;;;;4975552;28;20213;-77
2021/05/14 03:34:33;;;;;;;16.40;14.70;;;11.70;99.90;;;;;;4959867;28;20203;-77
2021/05/14 03:36:59;;;;;;;18.23;15.15;;;11.50;99.90;;;;;;4993113;28;20263;-77
2021/05/14 03:39:27;;;;;;;18.65;15.75;;;11.60;99.90;;;;;;4974989;28;20213;-77
2021/05/14 03:42:06;;;;;;;18.38;16.48;;;11.70;99.90;;;;;;4976474;28;20205;-77
2021/05/14 03:44:33;;;;;;;18.63;16.70;;;11.80;99.90;;;;;;4993407;28;20541;-77
2021/05/14 03:47:00;;;;;;;19.45;17.52;;;11.70;99.90;;;;;;4975135;28;20193;-77
2021/05/14 03:49:27;;;;;;;23.75;20.63;;;11.70;99.90;;;;;;4975507;28;20259;-77
2021/05/14 03:51:54;;;;;;;27.92;24.25;;;12.00;99.90;;;;;;4992840;28;20205;-77
2021/05/14 03:54:22;;;;;;;26.35;23.63;;;12.20;99.90;;;;;;4975455;28;20675;-77
2021/05/14 03:56:49;;;;;;;29.00;25.95;;;12.10;99.90;;;;;;4975565;28;20587;-77
2021/05/14 03:59:16;;;;;;;31.55;28.33;;;12.00;99.90;;;;;;4971892;28;20333;-76
2021/05/14 04:01:43;;;;;;;35.35;31.52;;;11.80;99.90;;;;;;4986212;28;20197;-76
2021/05/14 04:04:10;;;;;;;37.42;30.67;;;11.70;99.90;;;;;;4991815;28;20217;-77
2021/05/14 04:06:37;;;;;;;34.92;31.33;;;11.60;99.90;;;;;;4991724;28;20296;-77
2021/05/14 04:09:04;;;;;;;32.30;28.90;;;11.70;99.90;;;;;;4974018;28;20271;-77
2021/05/14 04:14:32;;;;;;;34.25;30.17;;;12.10;99.90;;;;;;4955437;28;20233;-77
2021/05/14 04:17:00;;;;;;;30.38;27.13;;;12.20;99.90;;;;;;4977796;28;20192;-77
2021/05/14 04:19:27;;;;;;;28.20;25.05;;;12.10;99.90;;;;;;4956094;28;20218;-75
2021/05/14 04:21:54;;;;;;;29.80;25.90;;;12.00;99.90;;;;;;4972227;28;20244;-77
2021/05/14 04:24:22;;;;;;;27.58;24.48;;;11.90;99.90;;;;;;4991972;28;20205;-77
2021/05/14 04:26:49;;;;;;;29.10;24.75;;;11.70;99.90;;;;;;4974402;28;20293;-78
2021/05/14 04:29:17;;;;;;;29.27;26.27;;;11.80;99.90;;;;;;4973906;28;20310;-77
2021/05/14 04:31:46;;;;;;;29.63;26.63;;;12.10;99.90;;;;;;4973998;28;20491;-77
2021/05/14 04:34:14;;;;;;;28.08;25.05;;;12.10;99.90;;;;;;5015559;23;20258;-38
2021/05/14 04:36:41;;;;;;;28.45;25.55;;;12.10;99.90;;;;;;5011172;28;20540;-38
2021/05/14 04:39:10;;;;;;;29.35;26.15;;;11.90;99.90;;;;;;4994091;28;20205;-39
2021/05/14 04:41:38;;;;;;;27.08;24.25;;;11.80;99.90;;;;;;4991561;28;20237;-38
2021/05/14 04:44:05;;;;;;;29.25;26.02;;;11.80;99.90;;;;;;5000841;28;20231;-40
2021/05/14 04:46:31;;;;;;;27.25;24.50;;;11.90;99.90;;;;;;5011478;28;20204;-38
2021/05/14 04:48:59;;;;;;;26.50;23.83;;;11.90;99.90;;;;;;5014212;23;20315;-36
2021/05/14 04:51:27;;;;;;;30.02;26.88;;;11.90;99.90;;;;;;4991289;28;20259;-35
2021/05/14 04:53:55;;;;;;;36.55;30.92;;;12.20;99.90;;;;;;4994187;28;20204;-36
2021/05/14 04:56:22;;;;;;;30.30;27.00;;;12.20;99.90;;;;;;4993487;28;20559;-36
2021/05/14 04:58:48;;;;;;;34.92;31.27;;;11.90;99.90;;;;;;4989020;28;20305;-37
2021/05/14 05:01:16;;;;;;;39.67;32.25;;;11.90;99.90;;;;;;4975216;28;20222;-39
2021/05/14 05:03:44;;;;;;;38.83;32.15;;;11.90;99.90;;;;;;4983805;28;20223;-37
2021/05/14 05:06:11;;;;;;;41.20;33.92;;;11.80;99.90;;;;;;4986207;28;20190;-36
2021/05/14 05:08:38;;;;;;;41.88;34.22;;;11.80;99.90;;;;;;4974003;28;20229;-37
2021/05/14 05:11:05;;;;;;;35.50;31.75;;;12.00;99.90;;;;;;4986412;28;20198;-36
2021/05/14 05:13:33;;;;;;;34.50;30.50;;;12.00;99.90;;;;;;4975278;28;20205;-36
2021/05/14 05:16:00;;;;;;;38.85;32.45;;;12.00;99.90;;;;;;4974918;28;20289;-36
2021/05/14 05:18:27;;;;;;;39.63;32.72;;;11.90;99.90;;;;;;4987598;28;20731;-37
2021/05/14 05:20:54;;;;;;;36.35;31.85;;;12.10;99.90;;;;;;4977688;28;20561;-36
2021/05/14 05:23:21;;;;;;;38.22;31.58;;;12.10;99.90;;;;;;4987735;28;20229;-38
2021/05/14 05:25:48;;;;;;;33.13;29.55;;;12.00;99.90;;;;;;4974096;28;20190;-36
2021/05/14 05:28:20;;;;;;;36.45;31.98;;;12.10;99.90;;;;;;4985754;28;20217;-36
2021/05/14 05:30:47;;;;;;;32.65;29.00;;;12.10;99.90;;;;;;4981093;28;20690;-36
2021/05/14 05:33:15;;;;;;;33.75;29.73;;;12.10;99.90;;;;;;4973686;28;20194;-36
2021/05/14 05:35:41;;;;;;;32.53;29.02;;;11.80;99.90;;;;;;4984552;28;20558;-38
2021/05/14 05:38:16;;;;;;;33.20;28.33;;;11.80;99.90;;;;;;4984065;28;20324;-36
2021/05/14 05:40:43;;;;;;;36.53;30.98;;;11.80;99.90;;;;;;4986449;28;20206;-36
2021/05/14 05:43:10;;;;;;;34.85;31.20;;;11.80;99.90;;;;;;4976151;28;20728;-36
2021/05/14 05:45:37;;;;;;;36.58;29.15;;;11.80;99.90;;;;;;4985163;28;20280;-35
2021/05/14 05:48:04;;;;;;;37.28;30.52;;;11.60;99.90;;;;;;4974776;28;20221;-36
2021/05/14 05:50:31;;;;;;;37.05;30.50;;;11.80;99.90;;;;;;4973298;28;20281;-36
2021/05/14 05:52:58;;;;;;;44.35;34.22;;;11.80;99.90;;;;;;4975063;28;20730;-36
2021/05/14 05:55:24;;;;;;;41.72;31.42;;;11.90;99.90;;;;;;4986689;28;20324;-36
2021/05/14 05:57:52;;;;;;;41.03;32.83;;;12.20;99.90;;;;;;4991056;28;20225;-36
2021/05/14 06:00:19;;;;;;;40.58;31.70;;;12.20;99.90;;;;;;4974399;28;20198;-37
2021/05/14 06:02:45;;;;;;;38.58;30.92;;;12.30;99.90;;;;;;4991970;28;20733;-36
2021/05/14 06:05:13;;;;;;;35.15;31.33;;;12.50;99.90;;;;;;4987160;28;20337;-36
2021/05/14 06:07:40;;;;;;;35.65;30.05;;;12.40;99.90;;;;;;4972919;28;20253;-37
2021/05/14 06:10:08;;;;;;;40.42;30.20;;;12.30;99.90;;;;;;4976214;28;20208;-37
2021/05/14 06:12:35;;;;;;;42.78;33.35;;;12.50;99.90;;;;;;4986799;28;20713;-36
2021/05/14 06:15:03;;;;;;;44.63;33.60;;;12.30;99.90;;;;;;4972863;28;20668;-37
2021/05/14 06:17:29;;;;;;;37.28;30.00;;;12.10;99.90;;;;;;4985763;28;20780;-36
2021/05/14 06:19:58;;;;;;;46.20;35.38;;;12.20;99.90;;;;;;4991857;28;20484;-36
2021/05/14 06:22:24;;;;;;;38.08;33.38;;;12.10;99.90;;;;;;4976688;28;20703;-38
2021/05/14 06:24:51;;;;;;;37.53;31.05;;;12.30;99.90;;;;;;4977759;28;20248;-36
2021/05/14 06:27:18;;;;;;;37.83;32.45;;;12.00;99.90;;;;;;4979850;28;20276;-36
2021/05/14 06:29:46;;;;;;;39.42;32.20;;;12.10;99.90;;;;;;4977997;28;20209;-38
2021/05/14 06:32:13;;;;;;;42.78;35.08;;;11.90;99.90;;;;;;4980545;28;20191;-38
2021/05/14 06:34:40;;;;;;;42.65;32.42;;;12.30;99.90;;;;;;4981804;28;20198;-37
2021/05/14 06:37:07;;;;;;;40.97;33.85;;;12.50;99.90;;;;;;4980053;28;20190;-37
2021/05/14 06:39:35;;;;;;;40.03;32.22;;;12.50;99.90;;;;;;4988300;28;20218;-38
2021/05/14 06:42:01;;;;;;;44.25;32.55;;;12.60;99.90;;;;;;4976918;28;20204;-37
2021/05/14 06:44:29;;;;;;;37.15;29.45;;;12.80;99.90;;;;;;4979698;28;20606;-36
2021/05/14 06:46:56;;;;;;;36.35;28.05;;;12.30;99.90;;;;;;4973047;28;20194;-37
2021/05/14 06:49:23;;;;;;;32.85;28.55;;;12.40;99.90;;;;;;4975362;28;20699;-37
2021/05/14 06:51:50;;;;;;;32.55;27.38;;;12.50;99.90;;;;;;4972501;28;20222;-37
2021/05/14 06:54:17;;;;;;;32.28;25.77;;;12.70;99.90;;;;;;4982264;28;20248;-37
2021/05/14 06:56:43;;;;;;;31.80;26.35;;;12.70;99.90;;;;;;4977508;28;20210;-37
2021/05/14 06:59:10;;;;;;;33.15;24.95;;;12.80;99.90;;;;;;4978741;28;20213;-38
2021/05/14 07:01:37;;;;;;;34.25;25.92;;;12.90;99.90;;;;;;4977701;28;20202;-37
2021/05/14 07:04:04;;;;;;;35.15;27.20;;;13.10;99.90;;;;;;4985320;28;20221;-37
2021/05/14 07:06:32;;;;;;;33.72;27.70;;;13.30;99.90;;;;;;4985424;28;20236;-37
2021/05/14 07:08:58;;;;;;;33.10;27.13;;;13.20;99.90;;;;;;4980930;28;20240;-37
2021/05/14 07:11:25;;;;;;;35.42;26.45;;;13.20;99.90;;;;;;4973642;28;20284;-37
2021/05/14 07:13:52;;;;;;;33.65;27.75;;;12.80;99.90;;;;;;4983386;28;20284;-37
2021/05/14 07:16:19;;;;;;;33.55;27.20;;;12.70;99.90;;;;;;4978160;28;20460;-37
2021/05/14 07:18:46;;;;;;;32.60;25.98;;;13.00;99.90;;;;;;4986751;28;20303;-37
2021/05/14 07:21:12;;;;;;;31.20;25.75;;;13.10;99.90;;;;;;4978326;28;20262;-37
2021/05/14 07:23:41;;;;;;;31.67;25.23;;;13.20;99.90;;;;;;4991334;28;20276;-37
2021/05/14 07:26:09;;;;;;;30.77;25.00;;;13.40;99.90;;;;;;4977936;28;20205;-37
2021/05/14 07:28:35;;;;;;;30.05;24.38;;;13.60;99.90;;;;;;4973338;28;20234;-37
2021/05/14 07:31:03;;;;;;;29.15;23.02;;;13.70;99.90;;;;;;4984904;28;20194;-37
2021/05/14 07:33:30;;;;;;;33.72;27.48;;;13.80;99.90;;;;;;4989948;28;20193;-37
2021/05/14 07:35:57;;;;;;;32.17;24.50;;;13.80;99.90;;;;;;4989759;28;20204;-37
2021/05/14 07:38:23;;;;;;;34.72;25.45;;;13.60;99.90;;;;;;4973119;28;20313;-37
2021/05/14 07:40:51;;;;;;;29.20;25.48;;;13.20;99.90;;;;;;4978877;28;20232;-37
2021/05/14 07:43:18;;;;;;;25.77;21.58;;;13.60;99.90;;;;;;4978433;28;20220;-39
2021/05/14 07:45:44;;;;;;;20.98;18.63;;;13.60;99.90;;;;;;4987398;28;20554;-37
2021/05/14 07:48:20;;;;;;;25.95;21.08;;;13.20;99.90;;;;;;4990438;28;20269;-38
2021/05/14 07:50:47;;;;;;;26.55;22.25;;;13.20;99.90;;;;;;4978140;28;20213;-37
2021/05/14 07:53:13;;;;;;;26.70;21.60;;;13.30;99.90;;;;;;4977760;28;20204;-38
2021/05/14 07:55:40;;;;;;;26.92;21.48;;;13.40;99.90;;;;;;4990612;28;20658;-37
2021/05/14 07:58:08;;;;;;;25.20;20.58;;;13.10;99.90;;;;;;4987718;28;20217;-37
2021/05/14 08:00:35;;;;;;;28.48;20.40;;;13.00;99.90;;;;;;4976079;28;20248;-38
2021/05/14 08:03:02;;;;;;;21.02;18.67;;;12.80;99.90;;;;;;4986468;28;20246;-36
2021/05/14 08:05:29;;;;;;;23.63;20.25;;;12.90;99.90;;;;;;4973126;28;20202;-37
2021/05/14 08:08:00;;;;;;;30.73;21.52;;;13.20;99.90;;;;;;4971815;28;20225;-39
2021/05/14 08:10:27;;;;;;;21.67;19.40;;;13.50;99.90;;;;;;4982259;28;20198;-37
2021/05/14 08:12:54;;;;;;;23.13;19.00;;;13.60;99.90;;;;;;4984771;28;20249;-38
2021/05/14 08:15:22;;;;;;;22.55;19.98;;;13.60;99.90;;;;;;4982202;28;20235;-37
2021/05/14 08:17:51;;;;;;;22.40;19.85;;;14.00;99.90;;;;;;4992404;28;20221;-37
2021/05/14 08:20:17;;;;;;;20.10;18.10;;;13.90;99.90;;;;;;4986988;28;20714;-36
2021/05/14 08:22:45;;;;;;;22.55;20.10;;;14.00;99.90;;;;;;4994586;28;20304;-37
2021/05/14 08:25:12;;;;;;;23.35;20.85;;;14.00;99.90;;;;;;4993943;28;20223;-37
2021/05/14 08:27:39;;;;;;;24.98;21.30;;;14.30;99.90;;;;;;4994356;28;20205;-37
2021/05/14 08:30:08;;;;;;;24.25;21.45;;;14.20;99.90;;;;;;4989099;28;20300;-38
2021/05/14 08:32:35;;;;;;;24.95;22.27;;;14.30;99.90;;;;;;4990936;28;20284;-37
2021/05/14 08:35:02;;;;;;;25.52;20.67;;;14.40;99.90;;;;;;4994514;28;20645;-38
2021/05/14 08:37:29;;;;;;;25.52;20.83;;;14.50;99.90;;;;;;4976392;28;20691;-37
2021/05/14 08:39:56;;;;;;;24.77;20.63;;;14.20;99.90;;;;;;4974094;28;20580;-37
2021/05/14 08:42:23;;;;;;;22.15;19.95;;;14.50;99.90;;;;;;4980751;28;20632;-38
2021/05/14 08:44:50;;;;;;;20.83;18.63;;;14.30;99.90;;;;;;4985569;28;20648;-37
2021/05/14 08:47:17;;;;;;;23.35;19.77;;;14.30;99.90;;;;;;4976659;28;20209;-37
2021/05/14 08:49:46;;;;;;;23.38;19.90;;;14.40;99.90;;;;;;4976305;28;20232;-37
2021/05/14 08:52:15;;;;;;;22.75;20.42;;;14.50;99.90;;;;;;4974883;28;20206;-37
2021/05/14 08:54:57;;;;;;;27.55;21.90;;;14.70;99.90;;;;;;4975571;28;20274;-37
2021/05/14 08:57:24;;;;;;;23.27;20.95;;;15.10;99.90;;;;;;4985035;28;20209;-37
2021/05/14 08:59:51;;;;;;;23.92;20.52;;;15.30;99.90;;;;;;4981777;28;20197;-37
2021/05/14 09:02:18;;;;;;;24.42;21.92;;;15.80;99.90;;;;;;4981716;28;20206;-37
2021/05/14 09:04:47;;;;;;;27.60;24.60;;;16.00;99.90;;;;;;4978202;28;20204;-37
2021/05/14 09:07:16;;;;;;;24.83;22.17;;;15.90;99.90;;;;;;4985188;28;20224;-39
2021/05/14 09:10:02;;;;;;;26.75;24.00;;;16.10;99.90;;;;;;4973757;28;20309;-37
2021/05/14 09:12:32;;;;;;;23.77;20.98;;;16.20;99.90;;;;;;4991618;28;20201;-37
2021/05/14 09:14:59;;;;;;;24.15;20.75;;;16.20;99.90;;;;;;4984452;28;20672;-37
2021/05/14 09:17:27;;;;;;;29.38;26.48;;;15.90;99.90;;;;;;4979530;28;20696;-37
2021/05/14 09:19:54;;;;;;;26.92;23.95;;;16.10;99.90;;;;;;4988475;28;20197;-37
2021/05/14 09:22:22;;;;;;;22.10;19.80;;;16.40;99.90;;;;;;4984515;28;20199;-37
2021/05/14 09:24:56;;;;;;;20.48;18.40;;;16.00;99.90;;;;;;4973584;28;20684;-37
2021/05/14 09:27:30;;;;;;;18.77;16.95;;;16.20;99.90;;;;;;4973986;28;20238;-38
2021/05/14 09:29:58;;;;;;;20.88;17.98;;;16.20;99.90;;;;;;4972047;28;20285;-38
2021/05/14 09:32:27;;;;;;;17.88;15.23;;;16.30;99.90;;;;;;4981434;28;20301;-39
2021/05/14 09:34:56;;;;;;;19.08;17.05;;;16.50;99.90;;;;;;4987014;28;20197;-38
2021/05/14 09:37:25;;;;;;;18.23;16.40;;;16.70;99.90;;;;;;4983433;28;20198;-37
2021/05/14 09:40:12;;;;;;;16.27;14.73;;;16.70;99.90;;;;;;4982769;28;20292;-38
2021/05/14 09:42:39;;;;;;;17.88;16.08;;;16.50;99.90;;;;;;4985316;28;20667;-37
2021/05/14 09:45:20;;;;;;;16.63;15.05;;;16.40;99.90;;;;;;4980262;28;20193;-39
2021/05/14 09:48:01;;;;;;;15.05;13.65;;;16.70;99.90;;;;;;4988045;28;20665;-37
2021/05/14 09:50:31;;;;;;;16.25;14.52;;;16.40;99.90;;;;;;4973066;28;20351;-37
2021/05/14 09:53:04;;;;;;;19.02;17.17;;;16.40;99.90;;;;;;4980788;28;20193;-37
2021/05/14 09:55:31;;;;;;;17.02;14.45;;;16.70;99.90;;;;;;4979983;28;20233;-38
2021/05/14 09:58:02;;;;;;;18.67;14.10;;;17.10;99.90;;;;;;4980085;28;20233;-37
2021/05/14 10:00:29;;;;;;;17.30;15.60;;;16.90;99.90;;;;;;4991264;28;20225;-37
2021/05/14 10:02:58;;;;;;;15.18;13.32;;;16.70;99.90;;;;;;4982969;28;20229;-37
2021/05/14 10:05:25;;;;;;;15.07;13.32;;;16.40;99.90;;;;;;4982700;28;20335;-38
2021/05/14 10:07:53;;;;;;;15.65;14.05;;;16.10;99.90;;;;;;4986488;28;20714;-37
2021/05/14 10:10:20;;;;;;;17.70;15.88;;;16.20;99.90;;;;;;4988413;28;20280;-37
2021/05/14 10:12:49;;;;;;;16.88;14.93;;;16.40;99.90;;;;;;4986656;28;20572;-36
2021/05/14 10:15:16;;;;;;;17.75;14.32;;;16.20;99.90;;;;;;4974789;28;20197;-38
2021/05/14 10:17:47;;;;;;;16.05;14.43;;;16.30;99.90;;;;;;4975322;28;20225;-37
2021/05/14 10:20:15;;;;;;;14.48;13.05;;;16.30;99.90;;;;;;4979035;28;20216;-38
2021/05/14 10:22:44;;;;;;;19.58;14.77;;;16.00;99.90;;;;;;4984249;28;20204;-38
2021/05/14 10:25:14;;;;;;;17.77;15.32;;;16.20;99.90;;;;;;4983385;28;20458;-37
2021/05/14 10:27:44;;;;;;;16.17;13.15;;;16.00;99.90;;;;;;4985651;28;20834;-37
2021/05/14 10:30:12;;;;;;;17.65;14.60;;;16.10;99.90;;;;;;4975883;28;20198;-36
2021/05/14 10:32:50;;;;;;;14.43;13.07;;;16.10;99.90;;;;;;4975458;28;20244;-36
2021/05/14 10:35:23;;;;;;;15.90;14.23;;;16.20;99.90;;;;;;4990682;28;20275;-37
2021/05/14 10:37:50;;;;;;;16.88;13.30;;;16.30;99.90;;;;;;4980668;28;20224;-37
2021/05/14 10:40:43;;;;;;;19.55;14.93;;;16.30;99.90;;;;;;4976807;28;20186;-37
2021/05/14 10:43:12;;;;;;;20.98;13.52;;;16.20;99.90;;;;;;4981465;28;20217;-36
2021/05/14 10:45:40;;;;;;;15.27;13.75;;;16.70;99.90;;;;;;4977664;28;20276;-37
2021/05/14 10:48:17;;;;;;;16.05;14.40;;;17.00;99.90;;;;;;5004280;23;20545;-39
2021/05/14 10:50:45;;;;;;;15.95;14.35;;;17.00;99.90;;;;;;5029340;28;20279;-39
2021/05/14 10:53:36;;;;;;;15.77;13.45;;;16.90;99.90;;;;;;5030820;28;20267;-40
2021/05/14 10:56:56;;;;;;;15.50;13.95;;;16.80;99.90;;;;;;5024807;28;20566;-38
2021/05/14 10:59:34;;;;;;;14.15;11.52;;;16.60;99.90;;;;;;5018551;28;20295;-39
2021/05/14 11:02:22;;;;;;;19.13;15.13;;;16.40;99.90;;;;;;5014111;28;20195;-38
2021/05/14 11:04:49;;;;;;;16.23;14.35;;;16.50;99.90;;;;;;5019208;28;20222;-39
2021/05/14 11:07:39;;;;;;;16.20;14.48;;;16.60;99.90;;;;;;5017791;28;20279;-39
2021/05/14 11:10:30;;;;;;;15.57;13.73;;;16.60;99.90;;;;;;5016832;28;20505;-38
2021/05/14 11:12:58;;;;;;;18.77;15.05;;;16.40;99.90;;;;;;5022030;28;20193;-39
2021/05/14 11:15:36;;;;;;;12.98;11.57;;;16.50;99.90;;;;;;5027020;28;20291;-40
2021/05/14 11:18:25;;;;;;;12.40;11.10;;;16.50;99.90;;;;;;5025183;28;20702;-39
2021/05/14 11:20:54;;;;;;;12.05;10.90;;;16.10;99.90;;;;;;5015147;28;20267;-39
2021/05/14 11:23:38;;;;;;;12.82;9.27;;;16.00;99.90;;;;;;5021478;28;20263;-39
2021/05/14 11:26:06;;;;;;;11.30;10.27;;;15.90;99.90;;;;;;5023484;28;20197;-38
2021/05/14 11:28:44;;;;;;;13.68;11.55;;;15.80;99.90;;;;;;5019607;28;20242;-41
2021/05/14 11:31:20;;;;;;;13.52;12.15;;;16.30;99.90;;;;;;5020601;28;20215;-42
2021/05/14 11:33:48;;;;;;;10.88;9.82;;;16.50;99.90;;;;;;5017514;28;20327;-39
2021/05/14 11:36:15;;;;;;;14.57;12.23;;;16.50;99.90;;;;;;5027055;28;20192;-39
2021/05/14 11:38:46;;;;;;;14.57;13.05;;;16.30;99.90;;;;;;5016130;28;20220;-39
2021/05/14 11:41:16;;;;;;;16.48;14.27;;;16.50;99.90;;;;;;5011184;28;20196;-40
2021/05/14 11:43:53;;;;;;;17.08;14.25;;;16.60;99.90;;;;;;5025535;28;20216;-40
2021/05/14 11:46:24;;;;;;;16.30;14.38;;;16.70;99.90;;;;;;5018934;28;20549;-39
2021/05/14 11:48:50;;;;;;;19.05;15.48;;;16.70;99.90;;;;;;5021312;28;20224;-40
2021/05/14 11:51:17;;;;;;;18.52;15.40;;;16.90;99.90;;;;;;5025617;28;20208;-39
2021/05/14 11:53:43;;;;;;;17.50;15.27;;;16.80;99.90;;;;;;5028327;28;20599;-39
2021/05/14 11:56:10;;;;;;;17.10;15.32;;;16.80;99.90;;;;;;5024286;28;22792;-41
2021/05/14 11:58:39;;;;;;;20.13;17.70;;;16.60;99.90;;;;;;5024576;28;20969;-39
2021/05/14 12:01:07;;;;;;;20.25;18.00;;;16.50;99.90;;;;;;5024222;28;20685;-39
2021/05/14 12:03:34;;;;;;;21.13;18.98;;;16.70;99.90;;;;;;5029239;28;20236;-39
2021/05/14 12:06:05;;;;;;;21.73;19.20;;;16.60;99.90;;;;;;5028033;28;20709;-39
2021/05/14 12:08:32;;;;;;;19.70;17.65;;;16.90;99.90;;;;;;5024169;28;20661;-38
2021/05/14 12:11:02;;;;;;;24.02;19.40;;;16.80;99.90;;;;;;5027860;28;20211;-40
2021/05/14 12:13:30;;;;;;;21.20;18.98;;;16.50;99.90;;;;;;5025730;28;20654;-39
2021/05/14 12:15:58;;;;;;;20.25;18.30;;;17.10;99.90;;;;;;5030733;28;20283;-39
2021/05/14 12:18:26;;;;;;;21.85;19.13;;;17.40;99.90;;;;;;5020927;28;20782;-39
2021/05/14 12:20:56;;;;;;;22.13;19.85;;;17.50;99.90;;;;;;5018824;28;20192;-38
2021/05/14 12:23:25;;;;;;;21.15;19.05;;;17.30;99.90;;;;;;5030024;28;20246;-39
2021/05/14 12:25:54;;;;;;;22.95;20.63;;;17.60;99.90;;;;;;5032248;28;20234;-40
2021/05/14 12:28:33;;;;;;;24.33;20.15;;;17.70;99.90;;;;;;5028705;28;20216;-39
2021/05/14 12:31:02;;;;;;;23.20;20.73;;;17.60;99.90;;;;;;5028617;28;20616;-39
2021/05/14 12:33:28;;;;;;;23.40;20.50;;;17.20;99.90;;;;;;5031512;28;20658;-39
2021/05/14 12:35:58;;;;;;;22.58;19.98;;;16.70;99.90;;;;;;5023138;28;20229;-39
2021/05/14 12:38:42;;;;;;;27.85;21.92;;;16.80;99.90;;;;;;5022454;28;20571;-40
2021/05/14 12:41:27;;;;;;;23.17;20.70;;;16.90;99.90;;;;;;5019911;28;20200;-38